Time,TemperatureF,DewpointF,PressureIn,WindDirection,WindDirectionDegrees,WindSpeedMPH,WindSpeedGustMPH,Humidity,HourlyPrecipIn,Conditions,Clouds,dailyrainin,SoftwareType,DateUTC
2013-10-26 00:00:00,36.0,31.0,30.24,SSW,210,0.0,5.0,81,0.00,,,-99.99,,2013-10-26 04:00:00,
2013-10-26 00:44:00,36.0,31.0,30.24,SSW,210,0.0,5.0,81,0.00,,,-99.99,,2013-10-26 04:44:00,
2013-10-26 00:54:00,36.0,31.0,30.24,SSW,210,0.0,5.0,81,0.00,,,-99.99,,2013-10-26 04:54:00,
2013-10-26 01:00:00,32.0,29.0,30.24,ESE,116,0.0,0.0,90,0.00,,,-99.99,,2013-10-26 05:00:00,
2013-10-26 01:43:00,32.0,29.0,30.24,ESE,116,0.0,0.0,90,0.00,,,-99.99,,2013-10-26 05:43:00,
2013-10-26 01:52:00,32.0,29.0,30.24,ESE,116,0.0,0.0,90,0.00,,,-99.99,,2013-10-26 05:52:00,
2013-10-26 02:00:00,30.0,28.0,30.24,ESE,110,0.0,0.0,93,0.00,,,-99.99,,2013-10-26 06:00:00,
2013-10-26 02:42:00,30.0,28.0,30.24,ESE,110,0.0,0.0,93,0.00,,,-99.99,,2013-10-26 06:42:00,
2013-10-26 02:52:00,30.0,28.0,30.24,ESE,110,0.0,0.0,93,0.00,,,-99.99,,2013-10-26 06:52:00,
2013-10-26 03:00:00,28.0,26.0,30.22,SE,135,0.0,0.0,94,0.00,,,-99.99,,2013-10-26 07:00:00,
2013-10-26 03:42:00,28.0,26.0,30.22,SE,135,0.0,0.0,94,0.00,,,-99.99,,2013-10-26 07:42:00,
2013-10-26 03:52:00,28.0,26.0,30.22,SE,135,0.0,0.0,94,0.00,,,-99.99,,2013-10-26 07:52:00,
2013-10-26 04:00:00,28.0,26.0,30.22,South,183,0.0,0.0,95,0.00,,,-99.99,,2013-10-26 08:00:00,
2013-10-26 04:42:00,28.0,26.0,30.22,South,183,0.0,0.0,95,0.00,,,-99.99,,2013-10-26 08:42:00,
2013-10-26 04:52:00,28.0,26.0,30.22,South,183,0.0,0.0,95,0.00,,,-99.99,,2013-10-26 08:52:00,
2013-10-26 05:00:00,28.0,26.0,30.22,SE,124,0.0,0.0,95,0.00,,,-99.99,,2013-10-26 09:00:00,
2013-10-26 05:43:00,28.0,26.0,30.22,SE,124,0.0,0.0,95,0.00,,,-99.99,,2013-10-26 09:43:00,
2013-10-26 05:53:00,28.0,26.0,30.22,SE,124,0.0,0.0,95,0.00,,,-99.99,,2013-10-26 09:53:00,
2013-10-26 06:00:00,27.0,25.0,30.22,South,172,0.0,0.0,95,0.00,,,-99.99,,2013-10-26 10:00:00,
2013-10-26 06:42:00,27.0,25.0,30.22,South,172,0.0,0.0,95,0.00,,,-99.99,,2013-10-26 10:42:00,
2013-10-26 06:53:00,27.0,25.0,30.22,South,172,0.0,0.0,95,0.00,,,-99.99,,2013-10-26 10:53:00,
2013-10-26 07:00:00,26.0,24.0,30.21,ESE,123,0.0,0.0,96,0.00,,,-99.99,,2013-10-26 11:00:00,
2013-10-26 07:42:00,26.0,24.0,30.21,ESE,123,0.0,0.0,96,0.00,,,-99.99,,2013-10-26 11:42:00,
2013-10-26 07:52:00,26.0,24.0,30.21,ESE,123,0.0,0.0,96,0.00,,,-99.99,,2013-10-26 11:52:00,
2013-10-26 08:00:00,26.0,24.0,30.21,SE,125,0.0,0.0,96,0.00,,,-99.99,,2013-10-26 12:00:00,
2013-10-26 08:42:00,26.0,24.0,30.21,SE,125,0.0,0.0,96,0.00,,,-99.99,,2013-10-26 12:42:00,
2013-10-26 08:52:00,26.0,24.0,30.21,SE,125,0.0,0.0,96,0.00,,,-99.99,,2013-10-26 12:52:00,
2013-10-26 09:00:00,36.0,33.0,30.22,South,182,0.0,0.0,89,0.00,,,-99.99,,2013-10-26 13:00:00,
2013-10-26 09:42:00,36.0,33.0,30.22,South,182,0.0,0.0,89,0.00,,,-99.99,,2013-10-26 13:42:00,
2013-10-26 09:52:00,36.0,33.0,30.22,South,182,0.0,0.0,89,0.00,,,-99.99,,2013-10-26 13:52:00,
2013-10-26 10:00:00,46.0,34.0,30.20,SW,236,0.0,6.0,63,0.00,,,-99.99,,2013-10-26 14:00:00,
2013-10-26 10:42:00,46.0,34.0,30.20,SW,236,0.0,6.0,63,0.00,,,-99.99,,2013-10-26 14:42:00,
2013-10-26 10:52:00,46.0,34.0,30.20,SW,236,0.0,6.0,63,0.00,,,-99.99,,2013-10-26 14:52:00,
2013-10-26 11:00:00,50.0,31.0,30.18,SSW,207,6.0,14.0,47,0.00,,,-99.99,,2013-10-26 15:00:00,
2013-10-26 11:44:00,50.0,31.0,30.18,SSW,207,6.0,14.0,47,0.00,,,-99.99,,2013-10-26 15:44:00,
2013-10-26 11:55:00,50.0,31.0,30.18,SSW,207,6.0,14.0,47,0.00,,,-99.99,,2013-10-26 15:55:00,
2013-10-26 12:00:00,53.0,30.0,30.15,SW,233,11.0,19.0,41,0.00,,,-99.99,,2013-10-26 16:00:00,
2013-10-26 12:44:00,53.0,30.0,30.15,SW,233,11.0,19.0,41,0.00,,,-99.99,,2013-10-26 16:44:00,
2013-10-26 12:54:00,53.0,30.0,30.15,SW,233,11.0,19.0,41,0.00,,,-99.99,,2013-10-26 16:54:00,
2013-10-26 13:00:00,54.0,27.0,30.11,WSW,254,12.0,24.0,34,0.00,,,-99.99,,2013-10-26 17:00:00,
2013-10-26 13:43:00,54.0,27.0,30.11,WSW,254,12.0,24.0,34,0.00,,,-99.99,,2013-10-26 17:43:00,
2013-10-26 13:52:00,54.0,27.0,30.11,WSW,254,12.0,24.0,34,0.00,,,-99.99,,2013-10-26 17:52:00,
2013-10-26 14:00:00,55.0,28.0,30.07,WSW,253,13.0,27.0,36,0.00,,,-99.99,,2013-10-26 18:00:00,
2013-10-26 14:42:00,55.0,28.0,30.07,WSW,253,13.0,27.0,36,0.00,,,-99.99,,2013-10-26 18:42:00,
2013-10-26 14:52:00,55.0,28.0,30.07,WSW,253,13.0,27.0,36,0.00,,,-99.99,,2013-10-26 18:52:00,
2013-10-26 15:00:00,55.0,32.0,30.04,SSW,212,19.0,27.0,42,0.00,,,-99.99,,2013-10-26 19:00:00,
2013-10-26 15:42:00,55.0,32.0,30.04,SSW,212,19.0,27.0,42,0.00,,,-99.99,,2013-10-26 19:42:00,
2013-10-26 15:52:00,55.0,32.0,30.04,SSW,212,19.0,27.0,42,0.00,,,-99.99,,2013-10-26 19:52:00,
2013-10-26 16:00:00,56.0,31.0,30.00,SSW,197,15.0,24.0,37,0.00,,,-99.99,,2013-10-26 20:00:00,
2013-10-26 16:43:00,56.0,31.0,30.00,SSW,197,15.0,24.0,37,0.00,,,-99.99,,2013-10-26 20:43:00,
2013-10-26 16:52:00,56.0,31.0,30.00,SSW,197,15.0,24.0,37,0.00,,,-99.99,,2013-10-26 20:52:00,
2013-10-26 17:00:00,55.0,30.0,29.98,SW,218,4.0,27.0,37,0.00,,,-99.99,,2013-10-26 21:00:00,
2013-10-26 17:43:00,55.0,30.0,29.98,SW,218,4.0,27.0,37,0.00,,,-99.99,,2013-10-26 21:43:00,
2013-10-26 17:55:00,55.0,30.0,29.98,SW,218,4.0,27.0,37,0.00,,,-99.99,,2013-10-26 21:55:00,
2013-10-26 21:00:00,40.0,33.0,29.95,SSW,200,0.0,6.0,77,0.00,,,-99.99,,2013-10-27 01:00:00,
2013-10-26 21:42:00,40.0,33.0,29.95,SSW,200,0.0,6.0,77,0.00,,,-99.99,,2013-10-27 01:42:00,
2013-10-26 21:52:00,40.0,33.0,29.95,SSW,200,0.0,6.0,77,0.00,,,-99.99,,2013-10-27 01:52:00,
2013-10-26 23:00:00,-999.0,-99.9,29.93,SSW,206,3.0,4.0,-999,-99.99,,,-99.99,,2013-10-27 03:00:00,
2013-10-26 23:45:00,39.0,35.0,29.93,SSW,206,3.0,4.0,86,0.00,,,-99.99,,2013-10-27 03:45:00,
2013-10-26 23:55:00,39.0,35.0,29.93,SSW,206,3.0,4.0,86,0.00,,,-99.99,,2013-10-27 03:55:00,